Strona główna
METAR-TAF:

METAR-TAF

Lotnisko :

Port lotniczy Kuwejt

Kuwejt, Kuwejt

Szerokość geograficzna: 29-13N, Długość geograficzna: 047-59E, wysokość: 55 m

Aktualna obserwacja pogody

Raport powstał 55 minut temu, godzina 08:00 UTC
Wiatr 18 kt od północ
Temperatura 43°C
Wilgotność 12%
Ciśnienie 1006 hPa
Widzialność: 7000 m
bezchmurnie
(słaby) , pył

METAR: OKBK 040800Z 01018KT 7000 -BLDU SKC 43/08 Q1006 NOSIG

czas: 11:55 (08:55 UTC)

Prognoza

Raport powstał 4 godziny i 10 minut temu, godzina 04:45 UTC
Prognoza ważna od 04 godzina 06 UTC do 05 godzina 12 UTC
Wiatr 12 kt od północ w porywach dochodzący do 22 kt
Widzialność: 7000 m

TAF: OKBK 040445Z 0406/0512 35012G22KT 7000 NSC

Obserwacja i prognoza pogody dla ponad 4000 lotnisk (raport METAR i TAF).

Dostępne stacje oznaczono żółtymi i czerwonymi punktami na mapie.

Najedź kursorem aby zobaczyć nazwę stacji.

Kliknij aby zobaczyć obserwacje i prognozy pogody.

Aby zmienić mapę: kliknij na zielony przycisk z czarnym krzyżykiem, aby powiększyć; na zielony przycisk z myślnikiem, aby pomniejszyć; na zielone strzałki, aby przejść do map sąsiednich.


METAR-TAF: